createdAt,value
2019-02-10T00:02:16.854Z,62.70
2019-02-10T00:04:44.881Z,62.20
2019-02-10T00:07:12.876Z,62.40
2019-02-10T00:09:41.374Z,62.60
2019-02-10T00:12:10.753Z,62.30
2019-02-10T00:14:38.883Z,62.50
2019-02-10T00:17:07.053Z,62.60
2019-02-10T00:19:35.308Z,62.70
2019-02-10T00:22:03.428Z,62.80
2019-02-10T00:24:31.510Z,63.10
2019-02-10T00:26:59.501Z,63.40
2019-02-10T00:29:27.544Z,63.40
2019-02-10T00:31:55.546Z,62.90
2019-02-10T00:34:23.502Z,62.80
2019-02-10T00:36:51.489Z,62.70
2019-02-10T00:39:19.482Z,63.10
2019-02-10T00:41:47.445Z,63.30
2019-02-10T00:44:16.517Z,63.00
2019-02-10T00:46:44.552Z,63.00
2019-02-10T00:49:13.007Z,62.80
2019-02-10T00:51:41.141Z,62.70
2019-02-10T00:54:09.122Z,62.10
2019-02-10T00:56:37.175Z,61.40
2019-02-10T00:59:05.647Z,60.80
2019-02-10T01:01:33.638Z,60.40
2019-02-10T01:04:01.925Z,60.00
2019-02-10T01:06:30.186Z,60.00
2019-02-10T01:08:58.401Z,60.10
2019-02-10T01:11:26.489Z,60.00
2019-02-10T01:13:54.766Z,60.30
2019-02-10T01:16:22.838Z,60.50
2019-02-10T01:19:08.284Z,60.30
2019-02-10T01:21:42.329Z,60.00
2019-02-10T01:24:10.310Z,60.60
2019-02-10T01:26:38.280Z,60.10
2019-02-10T01:29:06.516Z,59.90
2019-02-10T01:31:35.825Z,59.80
2019-02-10T01:34:03.896Z,59.70
2019-02-10T01:36:31.996Z,59.40
2019-02-10T01:39:00.075Z,59.60
2019-02-10T01:41:28.339Z,60.00
2019-02-10T01:43:56.584Z,60.20
2019-02-10T01:46:24.767Z,60.00
2019-02-10T01:48:53.073Z,60.00
2019-02-10T01:51:21.045Z,60.20
2019-02-10T01:53:50.037Z,60.80
2019-02-10T01:56:18.117Z,60.50
2019-02-10T01:58:46.141Z,61.10
2019-02-10T02:01:14.085Z,60.70
2019-02-10T02:03:42.050Z,60.40
2019-02-10T02:06:10.260Z,60.80
2019-02-10T02:08:38.606Z,60.40
2019-02-10T02:11:06.615Z,60.30
2019-02-10T02:13:36.422Z,60.10
2019-02-10T02:16:04.741Z,60.50
2019-02-10T02:18:32.703Z,60.40
2019-02-10T02:21:00.677Z,61.10
2019-02-10T02:23:28.797Z,61.60
2019-02-10T02:25:56.823Z,61.20
2019-02-10T02:28:24.997Z,61.00
2019-02-10T02:30:53.061Z,61.60
2019-02-10T02:33:21.151Z,61.20
2019-02-10T02:35:49.165Z,61.60
2019-02-10T02:40:45.112Z,60.30
2019-02-10T02:43:13.143Z,60.10
2019-02-10T02:45:41.264Z,59.90
2019-02-10T02:48:09.240Z,59.60
2019-02-10T02:50:37.462Z,59.40
2019-02-10T02:53:05.956Z,59.00
2019-02-10T02:55:34.051Z,58.90
2019-02-10T02:58:02.044Z,59.10
2019-02-10T03:00:30.040Z,58.80
2019-02-10T03:02:58.052Z,59.00
2019-02-10T03:05:26.052Z,58.00
2019-02-10T03:07:55.444Z,58.10
2019-02-10T03:10:24.596Z,58.10
2019-02-10T03:12:53.822Z,58.10
2019-02-10T03:15:21.751Z,58.10
2019-02-10T03:17:49.723Z,58.20
2019-02-10T03:20:18.733Z,58.10
2019-02-10T03:22:46.711Z,58.10
2019-02-10T03:25:15.250Z,58.10
2019-02-10T03:27:43.200Z,57.90
2019-02-10T03:30:11.319Z,57.70
2019-02-10T03:32:39.361Z,57.40
2019-02-10T03:35:07.354Z,57.30
2019-02-10T03:37:35.492Z,57.50
2019-02-10T03:40:03.651Z,56.90
2019-02-10T03:42:31.603Z,56.90
2019-02-10T03:44:59.882Z,57.00
2019-02-10T03:47:27.995Z,57.30
2019-02-10T03:49:57.097Z,57.20
2019-02-10T03:52:25.169Z,57.30
2019-02-10T03:54:53.393Z,57.10
2019-02-10T03:57:21.405Z,56.90
2019-02-10T03:59:49.364Z,56.70
2019-02-10T04:02:17.380Z,55.90
2019-02-10T04:04:45.505Z,55.70
2019-02-10T04:07:13.617Z,55.50
2019-02-10T04:09:41.973Z,55.60
2019-02-10T04:12:10.113Z,55.80
2019-02-10T04:14:38.163Z,55.80
2019-02-10T04:17:06.099Z,55.70
2019-02-10T04:19:34.086Z,55.60
2019-02-10T04:22:02.118Z,55.60
2019-02-10T04:24:30.067Z,55.50
2019-02-10T04:26:58.052Z,55.70
2019-02-10T04:29:26.028Z,55.50
2019-02-10T04:31:54.227Z,56.30
2019-02-10T04:34:22.333Z,55.60
2019-02-10T04:36:50.267Z,55.80
2019-02-10T04:39:18.342Z,55.50
2019-02-10T04:41:46.326Z,55.70
2019-02-10T04:44:14.393Z,55.80
2019-02-10T04:46:42.427Z,55.80
2019-02-10T04:49:10.926Z,55.80
2019-02-10T04:51:38.931Z,55.90
2019-02-10T04:54:07.074Z,56.00
2019-02-10T04:56:35.130Z,56.00
2019-02-10T04:59:03.118Z,56.00
2019-02-10T05:01:31.092Z,56.00
2019-02-10T05:03:59.091Z,56.10
2019-02-10T05:06:27.030Z,56.00
2019-02-10T05:08:56.358Z,56.20
2019-02-10T05:11:24.506Z,56.70
2019-02-10T05:13:52.609Z,56.70
2019-02-10T05:16:20.599Z,56.90
2019-02-10T05:18:48.693Z,56.90
2019-02-10T05:21:18.526Z,56.50
2019-02-10T05:23:46.510Z,56.50
2019-02-10T05:26:14.549Z,56.90
2019-02-10T05:28:42.854Z,56.80
2019-02-10T05:31:10.858Z,57.10
2019-02-10T05:33:39.101Z,57.20
2019-02-10T05:36:07.103Z,57.40
2019-02-10T05:38:35.106Z,57.60
2019-02-10T05:41:03.059Z,57.50
2019-02-10T05:43:31.108Z,57.90
2019-02-10T05:45:59.129Z,57.90
2019-02-10T05:48:27.337Z,57.40
2019-02-10T05:50:55.461Z,57.90
2019-02-10T05:53:23.540Z,57.90
2019-02-10T05:55:51.917Z,57.70
2019-02-10T05:58:19.893Z,57.30
2019-02-10T06:00:48.225Z,57.40
2019-02-10T06:03:16.258Z,57.70
2019-02-10T06:05:44.302Z,57.60
2019-02-10T06:08:13.635Z,57.70
2019-02-10T06:10:42.405Z,57.80
2019-02-10T06:13:10.458Z,58.20
2019-02-10T06:15:38.530Z,58.10
2019-02-10T06:18:06.798Z,58.30
2019-02-10T06:20:34.774Z,58.00
2019-02-10T06:23:02.873Z,58.10
2019-02-10T06:25:30.821Z,57.90
2019-02-10T06:27:58.815Z,57.70
2019-02-10T06:30:26.959Z,57.70
2019-02-10T06:32:55.007Z,57.90
2019-02-10T06:35:22.990Z,57.90
2019-02-10T06:37:51.312Z,57.80
2019-02-10T06:40:19.452Z,57.70
2019-02-10T06:42:47.519Z,57.60
2019-02-10T06:45:15.498Z,57.50
2019-02-10T06:47:43.826Z,57.60
2019-02-10T06:50:11.756Z,57.50
2019-02-10T06:52:40.058Z,57.30
2019-02-10T06:55:12.221Z,57.20
2019-02-10T06:57:40.447Z,57.20
2019-02-10T07:00:30.587Z,57.10
2019-02-10T07:03:39.451Z,56.30
2019-02-10T07:06:07.978Z,56.80
2019-02-10T07:08:35.951Z,56.90
2019-02-10T07:11:03.938Z,56.40
2019-02-10T07:13:39.221Z,56.60
2019-02-10T07:16:54.072Z,56.50
2019-02-10T07:20:48.691Z,56.70
2019-02-10T07:23:56.202Z,56.60
2019-02-10T07:26:53.965Z,56.80
2019-02-10T07:30:27.238Z,56.60
2019-02-10T07:32:55.453Z,56.10
2019-02-10T07:36:14.962Z,55.30
2019-02-10T07:39:16.246Z,55.60
2019-02-10T07:42:46.803Z,55.80
2019-02-10T07:46:04.078Z,55.50
2019-02-10T07:49:16.950Z,55.20
2019-02-10T07:52:25.853Z,56.00
2019-02-10T07:55:10.661Z,55.20
2019-02-10T07:58:38.533Z,54.20
2019-02-10T08:01:57.240Z,53.80
2019-02-10T08:05:02.562Z,52.10
2019-02-10T08:08:46.556Z,51.20
2019-02-10T08:11:56.959Z,51.30
2019-02-10T08:14:54.655Z,51.00
2019-02-10T08:18:03.874Z,50.70
2019-02-10T08:21:25.535Z,50.60
2019-02-10T08:24:48.200Z,51.00
2019-02-10T08:28:09.046Z,52.00
2019-02-10T08:31:11.270Z,49.70
2019-02-10T08:34:07.842Z,50.60
2019-02-10T08:37:33.278Z,50.70
2019-02-10T08:41:12.660Z,47.70
2019-02-10T08:44:14.450Z,48.30
2019-02-10T08:47:14.119Z,48.80
2019-02-10T08:50:43.414Z,47.50
2019-02-10T08:53:23.663Z,46.20
2019-02-10T08:55:53.355Z,47.40
2019-02-10T08:58:21.976Z,45.80
2019-02-10T09:00:51.935Z,46.20
2019-02-10T09:03:20.193Z,46.30
2019-02-10T09:05:53.078Z,46.80
2019-02-10T09:08:21.940Z,46.70
2019-02-10T09:10:50.311Z,47.00
2019-02-10T09:13:18.514Z,46.90
2019-02-10T09:15:48.762Z,47.20
2019-02-10T09:18:17.646Z,46.70
2019-02-10T09:20:45.824Z,47.20
2019-02-10T09:23:13.846Z,46.90
2019-02-10T09:25:48.499Z,47.30
2019-02-10T09:28:21.217Z,47.00
2019-02-10T09:30:49.220Z,47.40
2019-02-10T09:33:17.559Z,46.20
2019-02-10T09:35:45.528Z,45.20
2019-02-10T09:38:13.563Z,45.20
2019-02-10T09:40:41.948Z,45.70
2019-02-10T09:43:10.199Z,45.20
2019-02-10T09:45:38.434Z,45.00
2019-02-10T09:48:06.953Z,44.50
2019-02-10T09:50:35.600Z,43.80
2019-02-10T09:53:04.042Z,43.20
2019-02-10T09:55:32.221Z,42.10
2019-02-10T09:58:00.298Z,42.30
2019-02-10T10:00:28.635Z,41.80
2019-02-10T10:02:56.844Z,41.70
2019-02-10T10:05:25.056Z,41.20
2019-02-10T10:07:53.023Z,40.60
2019-02-10T10:10:21.112Z,40.50
2019-02-10T10:12:49.333Z,39.80
2019-02-10T10:15:17.890Z,39.60
2019-02-10T10:17:58.695Z,39.00
2019-02-10T10:20:40.449Z,38.40
2019-02-10T10:23:09.032Z,37.90
2019-02-10T10:25:37.843Z,37.30
2019-02-10T10:28:07.034Z,37.10
2019-02-10T10:30:37.254Z,36.60
2019-02-10T10:33:05.780Z,36.50
2019-02-10T10:35:34.138Z,36.60
2019-02-10T10:38:02.585Z,36.70
2019-02-10T10:40:30.704Z,36.30
2019-02-10T10:42:58.743Z,36.90
2019-02-10T10:45:26.999Z,35.90
2019-02-10T10:47:55.050Z,36.10
2019-02-10T10:50:23.193Z,36.00
2019-02-10T10:52:51.292Z,35.80
2019-02-10T10:55:19.364Z,35.80
2019-02-10T10:57:48.370Z,35.90
2019-02-10T11:00:22.880Z,35.60
2019-02-10T11:02:56.394Z,35.50
2019-02-10T11:05:27.220Z,35.70
2019-02-10T11:07:56.196Z,35.50
2019-02-10T11:10:28.043Z,35.30
2019-02-10T11:12:56.396Z,35.70
2019-02-10T11:15:24.455Z,36.00
2019-02-10T11:17:52.691Z,35.90
2019-02-10T11:20:20.790Z,36.20
2019-02-10T11:22:49.926Z,35.70
2019-02-10T11:25:18.132Z,36.00
2019-02-10T11:27:46.195Z,36.00
2019-02-10T11:30:14.690Z,35.40
2019-02-10T11:32:42.780Z,35.40
2019-02-10T11:35:10.837Z,35.30
2019-02-10T11:37:38.991Z,35.60
2019-02-10T11:40:07.200Z,34.70
2019-02-10T11:42:35.382Z,34.50
2019-02-10T11:45:03.842Z,34.00
2019-02-10T11:47:31.911Z,33.90
2019-02-10T11:49:59.904Z,33.50
2019-02-10T11:52:28.131Z,33.30
2019-02-10T11:54:56.225Z,33.40
2019-02-10T11:57:24.267Z,33.30
2019-02-10T11:59:52.414Z,33.70
2019-02-10T12:02:20.615Z,33.50
2019-02-10T12:04:48.731Z,33.10
2019-02-10T12:07:16.928Z,33.70
2019-02-10T12:09:51.543Z,33.70
2019-02-10T12:12:14.904Z,34.70
2019-02-10T12:14:43.129Z,34.00
2019-02-10T12:17:11.234Z,34.60
2019-02-10T12:19:39.261Z,34.90
2019-02-10T12:22:07.526Z,35.00
2019-02-10T12:24:35.545Z,35.10
2019-02-10T12:27:03.547Z,35.30
2019-02-10T12:29:31.684Z,35.60
2019-02-10T12:31:59.782Z,35.40
2019-02-10T12:34:28.005Z,35.70
2019-02-10T12:36:57.717Z,35.90
2019-02-10T12:39:27.644Z,35.30
2019-02-10T12:41:55.675Z,35.60
2019-02-10T12:44:23.709Z,35.80
2019-02-10T12:46:51.693Z,35.90
2019-02-10T12:49:19.785Z,36.70
2019-02-10T12:51:48.166Z,37.30
2019-02-10T12:54:16.143Z,38.60
2019-02-10T12:56:44.091Z,39.10
2019-02-10T12:59:12.356Z,39.90
2019-02-10T13:01:40.464Z,40.80
2019-02-10T13:04:08.446Z,41.40
2019-02-10T13:06:36.429Z,42.00
2019-02-10T13:09:07.207Z,43.40
2019-02-10T13:11:35.209Z,46.20
2019-02-10T13:14:03.248Z,48.20
2019-02-10T13:16:31.416Z,50.10
2019-02-10T13:18:59.454Z,50.30
2019-02-10T13:21:27.457Z,53.30
2019-02-10T13:23:56.113Z,55.20
2019-02-10T13:26:24.382Z,56.60
2019-02-10T13:28:52.494Z,59.00
2019-02-10T13:31:22.189Z,60.90
2019-02-10T13:33:50.455Z,62.10
2019-02-10T13:36:20.715Z,63.60
2019-02-10T13:38:49.140Z,64.30
2019-02-10T13:41:17.375Z,65.20
2019-02-10T13:43:45.536Z,66.50
2019-02-10T13:46:13.866Z,66.40
2019-02-10T13:48:42.035Z,67.30
2019-02-10T13:51:10.536Z,67.80
2019-02-10T13:53:38.552Z,67.50
2019-02-10T13:56:06.574Z,66.60
2019-02-10T13:58:36.924Z,67.30
2019-02-10T14:01:05.204Z,67.20
2019-02-10T14:03:33.189Z,68.30
2019-02-10T14:06:01.179Z,69.40
2019-02-10T14:08:29.431Z,69.70
2019-02-10T14:10:57.793Z,69.40
2019-02-10T14:13:25.790Z,70.00
2019-02-10T14:15:54.245Z,68.10
2019-02-10T14:18:22.422Z,67.20
2019-02-10T14:20:50.503Z,67.70
2019-02-10T14:23:19.119Z,69.10
2019-02-10T14:25:47.421Z,68.80
2019-02-10T14:30:43.909Z,70.00
2019-02-10T14:33:12.082Z,71.00
2019-02-10T14:35:40.164Z,70.80
2019-02-10T14:38:08.508Z,72.50
2019-02-10T14:40:36.527Z,71.50
2019-02-10T14:43:04.548Z,72.80
2019-02-10T14:45:32.616Z,74.00
2019-02-10T14:48:00.655Z,74.50
2019-02-10T14:50:29.047Z,75.40
2019-02-10T14:52:57.626Z,73.70
2019-02-10T14:55:25.751Z,72.80
2019-02-10T14:57:53.917Z,74.80
2019-02-10T15:00:23.913Z,74.50
2019-02-10T15:02:53.215Z,74.10
2019-02-10T15:05:21.473Z,74.00
2019-02-10T15:07:50.572Z,75.60
2019-02-10T15:10:18.784Z,74.20
2019-02-10T15:12:46.746Z,73.70
2019-02-10T15:15:15.091Z,74.70
2019-02-10T15:17:44.492Z,75.20
2019-02-10T15:20:14.022Z,74.20
2019-02-10T15:22:43.119Z,75.40
2019-02-10T15:25:12.588Z,76.10
2019-02-10T15:27:40.707Z,75.80
2019-02-10T15:30:11.741Z,77.20
2019-02-10T15:32:42.413Z,78.20
2019-02-10T15:35:11.581Z,76.90
2019-02-10T15:37:39.800Z,78.10
2019-02-10T15:40:08.056Z,80.20
2019-02-10T15:42:37.790Z,81.00
2019-02-10T15:45:06.948Z,80.10
2019-02-10T15:47:35.009Z,80.80
2019-02-10T15:50:03.872Z,80.90
2019-02-10T15:52:31.954Z,80.80
2019-02-10T15:55:00.206Z,80.90
2019-02-10T15:57:28.316Z,80.90
2019-02-10T15:59:56.565Z,80.60
2019-02-10T16:02:24.595Z,80.00
2019-02-10T16:04:52.675Z,79.80
2019-02-10T16:07:22.005Z,79.00
2019-02-10T16:09:50.310Z,79.00
2019-02-10T16:12:18.353Z,79.00
2019-02-10T16:14:46.395Z,79.40
2019-02-10T16:17:14.377Z,79.90
2019-02-10T16:19:42.782Z,80.80
2019-02-10T16:22:10.913Z,76.60
2019-02-10T16:24:39.438Z,77.10
2019-02-10T16:27:07.752Z,78.40
2019-02-10T16:29:35.958Z,78.00
2019-02-10T16:32:04.259Z,80.90
2019-02-10T16:34:32.248Z,81.10
2019-02-10T16:37:00.277Z,81.40
2019-02-10T16:39:28.258Z,82.60
2019-02-10T16:41:56.243Z,82.10
2019-02-10T16:44:24.326Z,81.60
2019-02-10T16:46:52.348Z,81.70
2019-02-10T16:49:20.335Z,80.10
2019-02-10T16:51:49.395Z,79.60
2019-02-10T16:54:17.599Z,77.70
2019-02-10T16:56:46.254Z,79.10
2019-02-10T16:59:14.430Z,76.30
2019-02-10T17:01:42.454Z,74.80
2019-02-10T17:04:10.866Z,75.90
2019-02-10T17:06:39.015Z,75.00
2019-02-10T17:09:07.118Z,77.50
2019-02-10T17:11:36.267Z,78.30
2019-02-10T17:14:04.528Z,80.70
2019-02-10T17:16:32.511Z,80.70
2019-02-10T17:19:00.563Z,81.40
2019-02-10T17:21:28.874Z,81.60
2019-02-10T17:23:56.851Z,81.50
2019-02-10T17:26:24.983Z,81.60
2019-02-10T17:28:53.253Z,82.50
2019-02-10T17:31:21.335Z,82.60
2019-02-10T17:33:50.004Z,80.80
2019-02-10T17:36:19.131Z,82.70
2019-02-10T17:38:47.210Z,82.90
2019-02-10T17:41:22.799Z,81.60
2019-02-10T17:43:50.739Z,84.90
2019-02-10T17:46:18.945Z,83.30
2019-02-10T17:48:47.045Z,82.50
2019-02-10T17:51:15.042Z,77.70
2019-02-10T17:53:43.289Z,78.90
2019-02-10T17:56:11.438Z,77.20
2019-02-10T17:58:39.713Z,75.40
2019-02-10T18:01:08.497Z,75.30
2019-02-10T18:03:36.572Z,76.60
2019-02-10T18:06:04.658Z,75.50
2019-02-10T18:08:32.849Z,76.40
2019-02-10T18:11:00.864Z,77.70
2019-02-10T18:13:29.080Z,76.10
2019-02-10T18:16:09.565Z,76.60
2019-02-10T18:18:56.014Z,75.00
2019-02-10T18:21:46.398Z,72.10
2019-02-10T18:24:23.450Z,72.40
2019-02-10T18:27:02.351Z,73.10
2019-02-10T18:29:45.164Z,71.60
2019-02-10T18:32:42.036Z,67.50
2019-02-10T18:35:16.561Z,70.00
2019-02-10T18:37:53.402Z,67.40
2019-02-10T18:40:29.672Z,68.00
2019-02-10T18:43:17.339Z,69.60
2019-02-10T18:45:53.844Z,68.60
2019-02-10T18:48:39.265Z,68.80
2019-02-10T18:51:20.697Z,69.30
2019-02-10T18:54:08.304Z,69.40
2019-02-10T18:56:52.705Z,69.50
2019-02-10T18:59:29.093Z,69.40
2019-02-10T19:02:20.899Z,70.20
2019-02-10T19:05:03.560Z,70.30
2019-02-10T19:07:54.188Z,71.10
2019-02-10T19:10:36.037Z,70.80
2019-02-10T19:13:22.429Z,70.30
2019-02-10T19:16:08.501Z,69.70
2019-02-10T19:19:02.113Z,70.40
2019-02-10T19:21:38.106Z,69.50
2019-02-10T19:24:28.662Z,68.60
2019-02-10T19:27:15.911Z,68.00
2019-02-10T19:30:09.649Z,67.30
2019-02-10T19:32:44.270Z,66.30
2019-02-10T19:35:32.490Z,66.50
2019-02-10T19:38:20.032Z,66.10
2019-02-10T19:41:10.970Z,65.60
2019-02-10T19:43:57.040Z,65.90
2019-02-10T19:46:35.243Z,65.70
2019-02-10T19:49:28.644Z,64.30
2019-02-10T19:52:14.923Z,64.20
2019-02-10T19:54:52.969Z,65.20
2019-02-10T19:57:39.349Z,63.40
2019-02-10T20:00:27.031Z,63.50
2019-02-10T20:03:05.212Z,63.20
2019-02-10T20:05:51.088Z,63.00
2019-02-10T20:08:37.141Z,62.20
2019-02-10T20:11:23.464Z,62.70
2019-02-10T20:14:20.786Z,63.00
2019-02-10T20:17:05.059Z,62.60
2019-02-10T20:19:47.192Z,63.00
2019-02-10T20:22:37.739Z,62.70
2019-02-10T20:25:31.428Z,63.50
2019-02-10T20:28:37.412Z,63.20
2019-02-10T20:31:20.867Z,64.00
2019-02-10T20:33:58.001Z,65.00
2019-02-10T20:36:49.959Z,65.90
2019-02-10T20:39:24.515Z,66.40
2019-02-10T20:42:13.003Z,67.20
2019-02-10T20:45:01.248Z,68.20
2019-02-10T20:47:49.278Z,69.90
2019-02-10T20:50:26.643Z,71.80
2019-02-10T20:53:26.414Z,72.90
2019-02-10T20:56:12.227Z,75.10
2019-02-10T20:58:46.294Z,76.90
2019-02-10T21:01:32.616Z,77.20
2019-02-10T21:04:31.785Z,77.40
2019-02-10T21:07:17.777Z,77.20
2019-02-10T21:10:04.077Z,79.40
2019-02-10T21:12:54.635Z,79.70
2019-02-10T21:15:44.955Z,80.10
2019-02-10T21:18:35.762Z,81.30
2019-02-10T21:21:21.591Z,81.40
2019-02-10T21:24:12.245Z,80.30
2019-02-10T21:27:11.919Z,81.60
2019-02-10T21:30:02.334Z,81.20
2019-02-10T21:32:53.311Z,81.90
2019-02-10T21:35:30.623Z,80.30
2019-02-10T21:38:14.654Z,81.50
2019-02-10T21:41:08.049Z,82.20
2019-02-10T21:43:55.071Z,81.40
2019-02-10T21:46:32.826Z,81.00
2019-02-10T21:49:07.088Z,80.80
2019-02-10T21:51:35.287Z,80.60
2019-02-10T21:54:03.674Z,80.10
2019-02-10T21:56:31.756Z,80.40
2019-02-10T21:58:59.770Z,79.50
2019-02-10T22:01:27.887Z,79.90
2019-02-10T22:03:56.144Z,80.20
2019-02-10T22:06:24.171Z,79.80
2019-02-10T22:08:52.307Z,79.60
2019-02-10T22:11:20.613Z,78.80
2019-02-10T22:13:48.770Z,79.00
2019-02-10T22:16:16.778Z,77.60
2019-02-10T22:18:44.737Z,78.20
2019-02-10T22:21:12.873Z,78.30
2019-02-10T22:23:40.950Z,78.10
2019-02-10T22:26:09.205Z,77.90
2019-02-10T22:28:37.285Z,77.20
2019-02-10T22:31:05.409Z,76.60
2019-02-10T22:33:33.682Z,76.50
2019-02-10T22:36:01.674Z,75.50
2019-02-10T22:38:29.728Z,72.70
2019-02-10T22:40:57.696Z,73.40
2019-02-10T22:43:25.708Z,74.40
2019-02-10T22:45:54.091Z,74.50
2019-02-10T22:48:22.213Z,72.10
2019-02-10T22:50:50.228Z,72.10
2019-02-10T22:53:18.297Z,73.10
2019-02-10T22:55:46.272Z,73.40
2019-02-10T22:58:14.239Z,74.00
2019-02-10T23:00:56.474Z,73.70
2019-02-10T23:03:24.648Z,72.80
2019-02-10T23:05:52.659Z,74.10
2019-02-10T23:08:20.662Z,72.60
2019-02-10T23:10:48.719Z,73.10
2019-02-10T23:13:16.668Z,74.10
2019-02-10T23:15:44.693Z,74.40
2019-02-10T23:18:12.668Z,75.10
2019-02-10T23:20:41.692Z,74.30
2019-02-10T23:23:09.668Z,74.90
2019-02-10T23:25:38.172Z,74.40
2019-02-10T23:28:06.385Z,72.60
2019-02-10T23:30:34.329Z,74.60
2019-02-10T23:33:02.365Z,71.30
2019-02-10T23:35:30.365Z,70.40
2019-02-10T23:38:01.303Z,68.80
2019-02-10T23:40:29.366Z,68.70
2019-02-10T23:43:02.052Z,69.50
2019-02-10T23:45:27.513Z,68.50
2019-02-10T23:47:55.606Z,67.10
2019-02-10T23:50:23.685Z,67.00
2019-02-10T23:52:51.752Z,65.80
2019-02-10T23:55:19.937Z,65.90
2019-02-10T23:57:47.990Z,65.50
